Cabo Engano, Dominican Republic

10:45 AM AST on September 01, 2014 (GMT -0400)
Barrio Mejico, San Pedro de Macoris | Change Station
CLOSE
Current Station
Personal Weather Station
Location: San Pedro De Macoris, SAN PEDRO DE MACORIS
Elevation: 30 ft
Nearby Weather Stations

Elev 30 ft 18.47 °N, 69.32 °W | Updated 27 seconds ago

Scattered Clouds
Scattered Clouds
86.9 °F
Feels Like 96 °F
N
2.5
Wind Variable Wind from East
Gusts 2.5 mph

Today
High -- | Low -- °F
--% Chance of Precip.
Yesterday
High -- | Low -- °F
Precip. -- in
6:22 AM 6:51 PM
Waxing Crescent, 41% visible
Pressure 30.04 in
Visibility 6.2 miles
Clouds Scattered Clouds 2100 ft
Heat Index 96 °F
Dew Point 75 °F
Humidity 68%
Rainfall 0.00 in
Snow Depth Not available.
UV 9 out of 12
Pollen Not available.
Air Quality Not available.
Flu Activity Not available.
METAR MDLR 011400Z 12006KT 9999 SCT021 29/23 Q1017

More Conditions Fewer Conditions

Pressure 30.04 in
Visibility 6.2 miles
Clouds Scattered Clouds 2100 ft
Heat Index 96 °F
Dew Point 75 °F
Humidity 68%
Rainfall 0.00 in
Snow Depth Not available.
UV 9 out of 12
Pollen Not available.
Air Quality Not available.
Flu Activity Not available.
METAR MDLR 011400Z 12006KT 9999 SCT021 29/23 Q1017

More Conditions Fewer Conditions

10-Day Weather Forecast

Almanac

Astronomy

Sep. 01, 2014 Rise Set
Actual Time 6:22 AM AST 6:51 PM AST
Civil Twilight 6:00 AM AST 7:13 PM AST
Nautical Twilight 5:34 AM AST 7:39 PM AST
Astronomical Twilight 5:08 AM AST 8:05 PM AST
Moon 12:10 PM AST 11:45 PM AST
Length of Visible Light 13h 13m
Length of Day
12h 29m
Tomorrow will be 1m 0s shorter.
Waxing Crescent, 41% of the Moon is Illuminated
Today
Waxing Crescent
Sep 2
First Quarter
Sep 8
Full
Sep 15
Last Quarter
Sep 24
New

Yesterday's Extremes

Country Highs Country Lows

Community

WunderPhotos

Upload Photos

1,749,253 photos uploaded!

Nearby

Snow Depth

Not available.

Earthquake Activity

City Distance Mag. Time & Date
No recent earthquake activity has been reported nearby.
Minimum magnitude displayed is 2.5.

Coastal Water Temperatures

Place Temperature
No Stations Reporting

Nearby Weather Stations